Aeroporto :
LOGIN :

Iscrizione | Disclaimer

   EN    FR    IT 

 










Sommario :    VFR   VFR Marginale   IFR   IFR Intensivo   IFR Molto Intensivo
Visibilità : 
Base nubi : 
>= 8 km
>= 3000ft
5 / 8 km
1000 / 3000 ft
1500m / 5 km
500 / 1000 ft
800 / 1500m
200 / 500 ft
< 800m
< 200 ft
Simboli :   Temporali  Nebbia  Neve Forte  Precipitazioni Forti  Vento > 20 kt
SIGMETs :   Varie  Temporali  Ghiacco  Turbolenza  Onda orograficha  Ceneri Vulcaniche






- Altitudine del aeroporto : 1245 ft
- Codice IATA : AJR


ESNX - Arvidsjaur

ULTIMO METAR :
  • 011150Z AUTO 32008KT 280V010 9999 BKN047/// M02/M12 Q0994

METARs OBSOLETI :
  • 011120Z AUTO 35011KT 9999 FEW051/// M02/M13 Q0995
  • 011050Z AUTO 34012KT 9999 SCT047/// M02/M11 Q0995
  • 011020Z AUTO 33012KT 9999 BKN042/// M02/M12 Q0995
  • 010950Z AUTO 32010KT 300V020 9999 BKN036/// M02/M10 Q0995
  • 010920Z AUTO 34010KT 9999 BKN035/// M03/M08 Q0995

Previsioni scadute.



MetMap, La meteo Aeronautica in un colpo d'occhio ! - Copyright ORBIFLY Dicembre 2007 - Disclaimer

ORBIFLY MET'MAP TEAM :

Programmazione e sviluppo : Alexandra Zaïnal
Concezione : Baudouin d'Aumeries
Aiuto per la programmazione : Marc-Olivier Méhu
Supporto tecnico e logistico : Manuel Goepfert
Aiuto per la traduzione : Arnaldo La Scala

Contatto : metmap@orbifly.com




FONTI E CREDITI :

   NOAA